Time;durP1;ratioP1;P1;durP2;ratioP2;P2;SDS_P1;SDS_P2;PMS_P1;PMS_P2;Temp;Humidity;BMP_temperature;BMP_pressure;BME280_temperature;BME280_humidity;BME280_pressure;Samples;Min_cycle;Max_cycle;Signal;HPM_P1;HPM_P2
2024/03/08 07:12:24;;;;;;;;;15.50;14.75;;;;;21.98;37.17;100462.41;6253651;22;45927;-80
2024/03/08 07:14:49;;;;;;;;;16.25;13.50;;;;;22.00;37.22;100461.22;6303725;22;46112;-80
2024/03/08 07:17:16;;;;;;;;;13.25;12.00;;;;;22.05;36.84;100450.03;6305360;22;45402;-81
2024/03/08 07:19:41;;;;;;;;;12.25;12.00;;;;;22.09;36.73;100451.31;6305389;22;45313;-81
2024/03/08 07:22:09;;;;;;;;;14.75;14.50;;;;;22.12;36.71;100456.22;6305665;22;45300;-81
2024/03/08 07:24:58;;;;;;;;;11.00;10.00;;;;;22.16;36.70;100448.72;6305227;22;46261;-81
2024/03/08 07:27:23;;;;;;;;;15.00;14.00;;;;;22.20;36.54;100435.91;6305740;22;45160;-80
2024/03/08 07:29:48;;;;;;;;;14.75;13.50;;;;;22.25;36.78;100442.25;6304617;22;45534;-80
2024/03/08 07:32:24;;;;;;;;;15.00;11.00;;;;;22.28;36.57;100439.22;6305561;22;45471;-80
2024/03/08 07:34:50;;;;;;;;;12.00;11.25;;;;;22.31;36.60;100427.44;6304500;22;47149;-80
2024/03/08 07:37:16;;;;;;;;;12.25;11.00;;;;;22.31;36.61;100439.84;6304689;22;45331;-80
2024/03/08 07:39:43;;;;;;;;;14.25;11.25;;;;;22.35;36.80;100443.78;6304823;22;45221;-80
2024/03/08 07:42:09;;;;;;;;;14.75;13.25;;;;;22.40;36.88;100436.06;6305812;22;45391;-80
2024/03/08 07:44:35;;;;;;;;;12.25;10.50;;;;;22.45;37.29;100431.00;6304434;22;46303;-80
2024/03/08 07:47:00;;;;;;;;;12.75;12.75;;;;;22.48;36.92;100437.75;6304930;22;45260;-79
2024/03/08 07:49:25;;;;;;;;;11.50;9.75;;;;;22.50;36.59;100431.25;6304980;22;45270;-80
2024/03/08 07:51:51;;;;;;;;;13.50;12.25;;;;;22.54;37.23;100430.84;6305453;22;45203;-80
2024/03/08 07:54:17;;;;;;;;;11.00;11.00;;;;;22.57;37.02;100433.09;6305452;22;46084;-80
2024/03/08 07:56:42;;;;;;;;;10.25;10.25;;;;;22.52;36.68;100431.88;6305266;22;45307;-79
2024/03/08 07:59:08;;;;;;;;;14.25;10.75;;;;;22.56;36.72;100424.31;6304749;22;45303;-81
2024/03/08 08:01:33;;;;;;;;;13.25;12.75;;;;;22.63;36.74;100427.88;6305824;22;45146;-80
2024/03/08 08:03:59;;;;;;;;;12.75;12.00;;;;;22.50;36.81;100388.84;6303064;22;47116;-80
2024/03/08 08:06:25;;;;;;;;;10.50;10.50;;;;;22.76;36.42;100428.97;6305234;22;45208;-80
2024/03/08 08:08:50;;;;;;;;;12.75;10.25;;;;;22.72;36.48;100407.31;6305480;22;45303;-80
2024/03/08 08:11:16;;;;;;;;;16.00;12.75;;;;;22.88;36.21;100423.94;6305882;22;45386;-80
2024/03/08 08:13:43;;;;;;;;;12.25;11.25;;;;;22.94;36.38;100419.69;6304940;22;45699;-80
2024/03/08 08:16:09;;;;;;;;;13.75;12.75;;;;;22.94;36.05;100401.94;6304463;22;45359;-80
2024/03/08 08:18:35;;;;;;;;;15.50;13.50;;;;;23.24;36.03;100402.63;6304347;22;45400;-79
2024/03/08 08:21:01;;;;;;;;;17.00;14.00;;;;;23.44;36.16;100391.28;6305059;22;45185;-80
2024/03/08 08:23:26;;;;;;;;;15.75;13.25;;;;;23.69;35.21;100383.59;6304961;22;45215;-85
2024/03/08 08:25:52;;;;;;;;;14.50;14.25;;;;;24.07;35.08;100402.63;6306405;22;45280;-79
2024/03/08 08:28:18;;;;;;;;;14.25;12.75;;;;;24.28;34.55;100400.75;6304975;22;45259;-79
2024/03/08 08:30:44;;;;;;;;;14.00;14.00;;;;;24.57;34.42;100393.34;6304886;22;45268;-81
2024/03/08 08:33:10;;;;;;;;;11.67;11.67;;;;;24.80;34.58;100388.59;6304587;22;45300;-80
2024/03/08 08:35:38;;;;;;;;;16.67;15.33;;;;;25.15;33.75;100392.75;6304222;22;45623;-80
2024/03/08 08:38:04;;;;;;;;;13.67;12.00;;;;;25.43;33.79;100399.56;6304926;22;45287;-80
2024/03/08 08:40:33;;;;;;;;;16.00;14.67;;;;;25.65;33.29;100379.75;6304484;22;45418;-81
2024/03/08 08:42:59;;;;;;;;;13.33;12.00;;;;;25.97;32.57;100382.41;6304136;22;46222;-80
2024/03/08 08:45:25;;;;;;;;;14.67;13.33;;;;;26.17;32.41;100397.41;6303872;22;45297;-81
2024/03/08 08:47:50;;;;;;;;;14.33;12.00;;;;;26.21;31.84;100368.44;6304750;22;45272;-81
2024/03/08 08:50:16;;;;;;;;;16.00;13.67;;;;;26.15;32.29;100362.16;6305095;22;45255;-80
2024/03/08 08:52:44;;;;;;;;;13.67;13.33;;;;;25.98;32.48;100338.72;6304584;22;45846;-79
2024/03/08 08:55:14;;;;;;;;;13.67;12.33;;;;;25.79;32.15;100335.22;6304600;22;45238;-80
2024/03/08 08:57:40;;;;;;;;;14.67;13.67;;;;;25.74;32.34;100352.66;6304234;22;45268;-79
2024/03/08 09:00:07;;;;;;;;;15.67;11.33;;;;;25.62;32.57;100370.34;6304572;22;45351;-79
2024/03/08 09:02:32;;;;;;;;;13.33;12.67;;;;;25.42;32.86;100343.88;6302928;22;46370;-78
2024/03/08 09:04:58;;;;;;;;;15.33;13.67;;;;;25.25;32.98;100320.41;6304527;22;45272;-80
2024/03/08 09:07:23;;;;;;;;;15.00;12.33;;;;;25.18;33.08;100331.94;6304571;22;45270;-80
2024/03/08 09:09:49;;;;;;;;;15.00;13.00;;;;;24.99;33.24;100304.38;6304435;22;45707;-80
2024/03/08 09:12:14;;;;;;;;;14.33;12.33;;;;;25.00;33.05;100321.97;6303450;22;46189;-79
2024/03/08 09:14:41;;;;;;;;;14.00;14.00;;;;;24.84;33.17;100316.13;6304455;22;45318;-80
2024/03/08 09:17:08;;;;;;;;;14.33;13.33;;;;;24.79;33.27;100304.47;6304339;22;45326;-80
2024/03/08 09:19:33;;;;;;;;;15.00;13.00;;;;;24.77;33.30;100328.66;6304640;22;45290;-80
2024/03/08 09:21:59;;;;;;;;;14.33;14.00;;;;;24.69;33.54;100313.75;6303715;22;46185;-80
2024/03/08 09:24:24;;;;;;;;;15.33;15.00;;;;;24.57;33.27;100296.78;6304076;22;45169;-80
2024/03/08 09:26:50;;;;;;;;;17.33;17.00;;;;;24.56;33.41;100325.25;6304067;22;45281;-79
2024/03/08 09:29:16;;;;;;;;;12.67;12.67;;;;;24.51;33.48;100303.78;6304408;22;45266;-79
2024/03/08 09:31:41;;;;;;;;;13.67;13.00;;;;;24.46;33.83;100298.28;6303911;22;46272;-79
2024/03/08 09:34:08;;;;;;;;;12.75;12.00;;;;;24.39;33.81;100292.97;6304157;22;45291;-80
2024/03/08 09:36:33;;;;;;;;;15.67;12.67;;;;;24.37;33.85;100309.16;6304138;22;45216;-80
2024/03/08 09:39:00;;;;;;;;;12.00;12.00;;;;;24.31;33.88;100290.53;6304172;22;45329;-79
2024/03/08 09:41:25;;;;;;;;;14.25;14.00;;;;;24.24;34.14;100279.91;6303100;22;46039;-80
2024/03/08 09:43:51;;;;;;;;;17.50;16.00;;;;;24.25;33.98;100289.53;6304076;22;45203;-80
2024/03/08 09:46:19;;;;;;;;;18.50;15.25;;;;;24.04;34.04;100257.69;6304104;22;45348;-80
2024/03/08 09:48:46;;;;;;;;;14.25;12.75;;;;;24.21;34.17;100275.00;6304578;22;45358;-76
2024/03/08 09:51:15;;;;;;;;;14.00;12.33;;;;;24.09;34.01;100261.56;6303615;22;46094;-74
2024/03/08 09:53:41;;;;;;;;;12.75;9.25;;;;;24.19;34.24;100267.25;6303253;22;45236;-79
2024/03/08 09:56:07;;;;;;;;;15.67;12.67;;;;;24.07;34.60;100257.25;6304171;22;45220;-76
2024/03/08 10:01:01;;;;;;;;;15.67;12.67;;;;;24.14;34.69;100262.56;6303892;22;45227;-76
2024/03/08 10:03:27;;;;;;;;;13.25;13.25;;;;;24.10;34.54;100258.69;6303612;22;45284;-77
2024/03/08 10:05:56;;;;;;;;;11.00;9.33;;;;;24.02;34.92;100241.13;6303775;22;45259;-78
2024/03/08 10:08:21;;;;;;;;;11.00;10.00;;;;;24.10;34.82;100263.19;6303863;22;45303;-75
2024/03/08 10:10:47;;;;;;;;;8.33;8.33;;;;;24.05;35.12;100261.13;6303826;22;45267;-77
2024/03/08 10:13:13;;;;;;;;;14.00;11.67;;;;;23.94;34.99;100247.47;6304423;22;45284;-80
2024/03/08 10:15:40;;;;;;;;;11.33;11.33;;;;;24.04;35.31;100268.31;6305051;22;45374;-76
2024/03/08 10:18:05;;;;;;;;;9.67;9.67;;;;;24.04;35.22;100257.69;6304946;22;45399;-75
2024/03/08 10:20:34;;;;;;;;;11.67;9.00;;;;;24.01;35.65;100244.00;6305079;22;45312;-75
2024/03/08 10:23:04;;;;;;;;;15.67;12.67;;;;;24.04;35.32;100247.06;6304271;22;45321;-75
2024/03/08 10:25:34;;;;;;;;;13.33;11.67;;;;;24.02;35.41;100251.75;6304955;22;45317;-76
2024/03/08 10:27:59;;;;;;;;;10.67;10.67;;;;;23.96;35.46;100239.31;6304706;22;45276;-75
2024/03/08 10:30:25;;;;;;;;;12.67;12.33;;;;;23.99;35.73;100246.88;6303701;22;48264;-76
2024/03/08 10:32:51;;;;;;;;;13.33;11.67;;;;;23.92;35.39;100228.28;6304848;22;45262;-73
2024/03/08 10:35:17;;;;;;;;;12.00;12.00;;;;;23.95;35.45;100219.88;6305064;22;45229;-76
2024/03/08 10:37:45;;;;;;;;;13.25;11.00;;;;;23.95;35.36;100229.69;6303573;22;45493;-76
2024/03/08 10:40:17;;;;;;;;;18.00;15.00;;;;;23.93;35.32;100227.25;6304709;22;46047;-75
2024/03/08 10:42:52;;;;;;;;;14.33;12.00;;;;;23.90;35.51;100210.91;6304083;22;45239;-76
2024/03/08 10:45:23;;;;;;;;;13.75;12.75;;;;;23.89;35.56;100201.31;6304196;22;45216;-76
2024/03/08 10:47:55;;;;;;;;;14.00;11.50;;;;;23.75;35.26;100180.09;6304444;22;45518;-76
2024/03/08 10:50:21;;;;;;;;;13.00;12.00;;;;;23.84;35.42;100186.81;6303892;22;46067;-74
2024/03/08 10:52:51;;;;;;;;;12.25;11.75;;;;;23.77;35.56;100193.97;6303804;22;45303;-73
2024/03/08 10:55:20;;;;;;;;;15.25;12.00;;;;;23.83;35.44;100189.69;6303931;22;45686;-75
2024/03/08 10:57:47;;;;;;;;;12.67;10.00;;;;;23.58;35.72;100150.50;6304279;22;45460;-75
2024/03/08 11:00:14;;;;;;;;;13.25;12.00;;;;;23.65;35.28;100175.22;6303269;22;47083;-74
2024/03/08 11:02:43;;;;;;;;;15.50;13.75;;;;;23.66;35.88;100173.34;6304572;22;45307;-76
2024/03/08 11:05:33;;;;;;;;;15.25;11.50;;;;;23.76;35.82;100175.59;6304192;22;45243;-75
2024/03/08 11:07:59;;;;;;;;;15.75;11.00;;;;;23.68;35.81;100172.13;6303268;22;45256;-75
2024/03/08 11:10:24;;;;;;;;;14.25;11.50;;;;;23.60;35.84;100129.88;6304133;22;45307;-76
2024/03/08 11:12:49;;;;;;;;;18.00;17.25;;;;;23.70;34.72;100166.63;6304803;22;45268;-81
2024/03/08 11:15:18;;;;;;;;;16.00;16.00;;;;;23.63;34.89;100159.47;6306430;22;45558;-82
2024/03/08 11:17:50;;;;;;;;;8.00;7.50;;;;;23.61;35.16;100163.38;6304405;22;45447;-81
2024/03/08 11:20:20;;;;;;;;;14.50;14.50;;;;;23.59;35.55;100147.66;6304817;22;45288;-78
2024/03/08 11:22:55;;;;;;;;;17.50;15.75;;;;;23.58;35.26;100146.00;6303289;22;45262;-77
2024/03/08 11:25:41;;;;;;;;;15.25;14.50;;;;;23.54;35.22;100131.53;6303783;22;45304;-78
2024/03/08 11:28:08;;;;;;;;;15.75;14.00;;;;;23.52;35.28;100134.38;6304591;22;45299;-78
2024/03/08 11:30:33;;;;;;;;;13.67;13.67;;;;;23.50;35.46;100132.94;6304572;22;47141;-81
2024/03/08 11:33:03;;;;;;;;;13.75;11.75;;;;;23.46;35.24;100131.72;6304909;22;45276;-81
2024/03/08 11:35:28;;;;;;;;;16.75;14.25;;;;;23.47;35.28;100136.81;6304464;22;45228;-79
2024/03/08 11:37:53;;;;;;;;;12.75;12.75;;;;;23.45;35.79;100130.06;6305098;22;45574;-81
2024/03/08 11:40:21;;;;;;;;;13.25;12.25;;;;;23.42;35.28;100133.94;6304459;22;46006;-81
2024/03/08 11:42:51;;;;;;;;;10.75;10.75;;;;;23.40;35.12;100130.69;6304335;22;45244;-81
2024/03/08 11:45:17;;;;;;;;;15.00;13.00;;;;;23.06;35.19;100072.34;6304674;22;45273;-81
2024/03/08 11:47:48;;;;;;;;;12.67;10.67;;;;;23.35;35.74;100115.41;6304968;22;45387;-81
2024/03/08 11:50:14;;;;;;;;;10.75;10.75;;;;;23.30;35.65;100109.88;6302890;22;48043;-81
2024/03/08 11:52:39;;;;;;;;;13.25;11.00;;;;;23.32;35.69;100125.59;6304264;22;45301;-80
2024/03/08 11:55:06;;;;;;;;;13.50;10.50;;;;;23.29;35.12;100105.59;6304485;22;45228;-80
2024/03/08 11:57:31;;;;;;;;;12.75;12.50;;;;;23.28;35.33;100102.16;6305383;22;45236;-80
2024/03/08 11:59:58;;;;;;;;;15.50;13.50;;;;;23.20;35.66;100102.34;6304474;22;45306;-80
2024/03/08 12:02:25;;;;;;;;;14.75;13.50;;;;;23.25;35.21;100102.56;6304691;22;45323;-80
2024/03/08 12:04:59;;;;;;;;;12.25;11.50;;;;;23.22;35.24;100113.56;6304735;22;45400;-80
2024/03/08 12:07:24;;;;;;;;;13.25;13.00;;;;;23.14;35.73;100085.41;6304321;22;45458;-80
2024/03/08 12:10:19;;;;;;;;;11.00;11.00;;;;;23.20;35.52;100106.84;6304536;22;45912;-80
2024/03/08 12:12:51;;;;;;;;;11.00;11.00;;;;;23.18;35.68;100093.78;6304853;22;45190;-79
2024/03/08 12:15:17;;;;;;;;;11.50;10.00;;;;;23.17;35.42;100078.88;6304234;22;45611;-80
2024/03/08 12:17:44;;;;;;;;;14.00;13.25;;;;;23.03;35.36;100065.63;6304468;22;45280;-80
2024/03/08 12:20:15;;;;;;;;;13.75;11.00;;;;;23.07;35.55;100082.78;6303766;22;47072;-81
2024/03/08 12:22:42;;;;;;;;;15.00;11.00;;;;;23.07;35.25;100058.91;6304415;22;45240;-80
2024/03/08 12:25:10;;;;;;;;;16.25;15.00;;;;;22.93;35.36;100046.66;6305030;22;45260;-81
2024/03/08 12:27:37;;;;;;;;;12.50;12.50;;;;;23.10;35.55;100080.72;6304462;22;45332;-80
2024/03/08 12:30:27;;;;;;;;;14.00;11.50;;;;;23.07;35.53;100055.44;6304026;22;47106;-80
2024/03/08 12:32:59;;;;;;;;;13.00;13.00;;;;;23.07;35.54;100066.03;6302397;22;45250;-76
2024/03/08 12:35:29;;;;;;;;;14.00;12.50;;;;;23.05;35.74;100053.00;6303713;22;45324;-74
2024/03/08 12:37:56;;;;;;;;;11.33;11.33;;;;;23.06;35.93;100062.56;6304565;22;45364;-75
2024/03/08 12:40:28;;;;;;;;;13.50;10.75;;;;;23.06;36.00;100046.66;6304442;22;45303;-76
2024/03/08 12:42:58;;;;;;;;;16.00;11.25;;;;;23.05;36.08;100052.19;6303978;22;45302;-75
2024/03/08 12:45:24;;;;;;;;;13.75;13.00;;;;;23.05;35.96;100042.38;6304329;22;45283;-78
2024/03/08 12:47:53;;;;;;;;;10.00;10.00;;;;;23.04;36.02;100038.09;6303106;22;45379;-77
2024/03/08 12:50:20;;;;;;;;;14.25;12.00;;;;;23.04;36.21;100042.56;6303899;22;46160;-78
2024/03/08 12:52:45;;;;;;;;;13.25;10.50;;;;;23.02;36.55;100039.31;6304094;22;45366;-78
2024/03/08 12:55:11;;;;;;;;;14.00;12.25;;;;;23.03;36.04;100036.44;6303698;22;45270;-76
2024/03/08 12:57:38;;;;;;;;;13.00;10.75;;;;;23.03;36.29;100030.34;6303738;22;45275;-76
2024/03/08 13:00:04;;;;;;;;;13.00;11.00;;;;;23.03;36.30;100027.69;6303400;22;45849;-76
2024/03/08 13:02:33;;;;;;;;;11.00;10.00;;;;;23.02;36.66;100032.19;6303451;22;45270;-77
2024/03/08 13:04:59;;;;;;;;;12.25;11.75;;;;;23.01;36.50;100021.75;6303749;22;45205;-76
2024/03/08 13:07:27;;;;;;;;;10.00;10.00;;;;;23.01;36.33;100041.16;6303605;22;45468;-77
2024/03/08 13:09:54;;;;;;;;;13.75;13.00;;;;;23.00;36.33;100018.31;6303038;22;47085;-76
2024/03/08 13:12:20;;;;;;;;;13.50;11.50;;;;;22.90;36.56;100004.66;6303512;22;45308;-76
2024/03/08 13:14:46;;;;;;;;;14.00;12.75;;;;;22.85;36.21;99986.69;6303519;22;45236;-76
2024/03/08 13:17:12;;;;;;;;;14.75;10.50;;;;;23.00;36.73;100017.50;6303320;22;45220;-76
2024/03/08 13:19:38;;;;;;;;;15.50;11.00;;;;;22.88;36.49;99991.59;6303469;22;46175;-75
2024/03/08 13:22:07;;;;;;;;;10.00;8.33;;;;;22.98;36.45;99993.81;6303593;22;45310;-75
2024/03/08 13:24:33;;;;;;;;;13.50;12.25;;;;;22.95;36.35;100007.50;6304523;22;45244;-75
2024/03/08 13:26:59;;;;;;;;;14.50;12.00;;;;;22.92;36.53;100016.69;6303895;22;45221;-75
2024/03/08 13:29:25;;;;;;;;;13.50;12.25;;;;;22.87;36.40;99982.00;6304089;22;45324;-75
2024/03/08 13:31:51;;;;;;;;;11.75;11.25;;;;;22.82;36.32;99974.66;6303664;22;45258;-75
2024/03/08 13:34:27;;;;;;;;;8.67;8.67;;;;;22.89;36.40;99997.72;6304256;22;45320;-75
2024/03/08 13:36:54;;;;;;;;;13.00;9.00;;;;;22.89;36.08;99984.44;6303942;22;45403;-76
2024/03/08 13:39:20;;;;;;;;;13.00;13.00;;;;;22.81;36.20;99975.69;6303535;22;46111;-76
2024/03/08 13:41:46;;;;;;;;;9.75;9.75;;;;;22.86;35.86;99985.69;6304017;22;45295;-76
2024/03/08 13:44:12;;;;;;;;;14.00;12.00;;;;;22.83;36.25;99965.69;6304183;22;45317;-76
2024/03/08 13:46:37;;;;;;;;;15.00;13.00;;;;;22.84;35.88;99969.16;6303366;22;45360;-76
2024/03/08 13:49:09;;;;;;;;;11.33;9.00;;;;;22.83;36.06;99955.06;6304995;22;48684;-75
2024/03/08 13:51:34;;;;;;;;;10.00;8.67;;;;;22.82;35.79;99963.25;6307382;22;45342;-76
2024/03/08 13:54:00;;;;;;;;;11.75;10.75;;;;;22.82;35.69;99961.41;6307582;22;45255;-77
2024/03/08 13:56:27;;;;;;;;;13.00;13.00;;;;;22.77;35.97;99947.16;6307703;22;45303;-78
2024/03/08 13:58:52;;;;;;;;;15.00;11.00;;;;;22.73;35.94;99942.25;6307059;22;47313;-78
2024/03/08 14:01:17;;;;;;;;;11.25;10.50;;;;;22.72;36.08;99931.84;6306487;22;45340;-79
2024/03/08 14:03:43;;;;;;;;;12.00;10.25;;;;;22.79;36.06;99934.50;6307325;22;45467;-78
2024/03/08 14:06:09;;;;;;;;;12.75;12.75;;;;;22.73;35.83;99925.53;6307552;22;45301;-78
2024/03/08 14:08:37;;;;;;;;;12.25;8.50;;;;;22.79;35.90;99935.31;6307352;22;46312;-79
2024/03/08 14:11:12;;;;;;;;;9.25;7.75;;;;;22.79;36.00;99924.72;6307038;22;45315;-78
2024/03/08 14:13:47;;;;;;;;;13.00;10.25;;;;;22.79;35.99;99919.41;6306530;22;45272;-77
2024/03/08 14:16:13;;;;;;;;;11.25;10.50;;;;;22.74;36.03;99913.91;6306686;22;45161;-77
2024/03/08 14:18:38;;;;;;;;;9.50;9.25;;;;;22.76;35.74;99925.13;6307178;22;45895;-78
2024/03/08 14:21:04;;;;;;;;;12.75;12.50;;;;;22.77;35.86;99915.31;6306772;22;45164;-78
2024/03/08 14:23:30;;;;;;;;;11.50;10.25;;;;;22.69;36.22;99890.63;6307456;22;45314;-78
2024/03/08 14:25:55;;;;;;;;;12.25;9.50;;;;;22.72;35.72;99903.50;6306954;22;45240;-77
2024/03/08 14:28:22;;;;;;;;;9.75;9.00;;;;;22.70;35.85;99908.19;6307303;22;45374;-79
2024/03/08 14:30:48;;;;;;;;;12.25;9.50;;;;;22.58;36.11;99878.84;6306344;22;45229;-78
2024/03/08 14:33:14;;;;;;;;;11.00;10.00;;;;;22.75;36.01;99902.25;6307205;22;45507;-77
2024/03/08 14:35:40;;;;;;;;;11.50;10.75;;;;;22.74;36.25;99929.81;6307159;22;45377;-78
2024/03/08 14:38:10;;;;;;;;;12.50;10.50;;;;;22.74;35.79;99906.75;6307046;22;45205;-78
2024/03/08 14:40:36;;;;;;;;;9.00;9.00;;;;;22.73;36.10;99897.19;6306654;22;45456;-78
2024/03/08 14:43:01;;;;;;;;;10.00;9.00;;;;;22.74;36.18;99896.13;6306923;22;45363;-78
2024/03/08 14:45:26;;;;;;;;;10.50;9.75;;;;;22.70;35.88;99873.72;6306788;22;45409;-77
2024/03/08 14:47:52;;;;;;;;;10.75;10.25;;;;;22.73;36.37;99886.56;6306859;22;46139;-77
2024/03/08 14:50:25;;;;;;;;;10.00;10.00;;;;;22.70;36.38;99886.97;6306762;22;45410;-79
2024/03/08 14:52:51;;;;;;;;;12.25;10.00;;;;;22.72;36.01;99884.94;6307078;22;45433;-78
2024/03/08 14:55:21;;;;;;;;;10.33;8.67;;;;;22.73;36.44;99880.44;6306571;22;45355;-77
2024/03/08 14:57:47;;;;;;;;;12.67;10.00;;;;;22.72;35.93;99876.97;6306387;22;46827;-77
2024/03/08 15:00:16;;;;;;;;;9.50;7.75;;;;;22.72;36.16;99886.75;6304212;22;45269;-78
2024/03/08 15:02:45;;;;;;;;;10.25;10.00;;;;;22.70;36.15;99881.69;6304977;22;45311;-77
2024/03/08 15:05:13;;;;;;;;;13.75;9.75;;;;;22.72;35.79;99870.84;6304511;22;45468;-77
2024/03/08 15:07:39;;;;;;;;;10.25;8.50;;;;;22.66;36.11;99869.03;6304654;22;46297;-78
2024/03/08 15:10:10;;;;;;;;;10.50;8.50;;;;;22.65;35.96;99872.69;6304976;22;45180;-78
2024/03/08 15:12:39;;;;;;;;;10.25;10.25;;;;;22.69;36.32;99872.06;6304464;22;45201;-77
2024/03/08 15:15:07;;;;;;;;;7.00;7.00;;;;;22.57;35.83;99853.34;6304518;22;45488;-77
2024/03/08 15:17:34;;;;;;;;;10.00;9.00;;;;;22.67;36.30;99873.28;6305018;22;45387;-78
2024/03/08 15:20:00;;;;;;;;;10.25;8.50;;;;;22.60;36.37;99847.63;6304482;22;45268;-77
2024/03/08 15:22:25;;;;;;;;;9.75;9.75;;;;;22.70;36.29;99862.28;6304952;22;45260;-77
2024/03/08 15:24:51;;;;;;;;;11.25;10.25;;;;;22.70;35.79;99867.59;6305249;22;45411;-78
2024/03/08 15:27:16;;;;;;;;;11.50;10.00;;;;;22.69;35.90;99869.41;6303779;22;46253;-77
2024/03/08 15:29:45;;;;;;;;;8.00;8.00;;;;;22.68;35.82;99883.69;6305105;22;45273;-77
2024/03/08 15:32:14;;;;;;;;;9.00;7.00;;;;;22.61;35.84;99849.22;6304653;22;45268;-77
2024/03/08 15:34:42;;;;;;;;;10.75;9.75;;;;;22.68;36.34;99859.00;6304397;22;45374;-78
2024/03/08 15:37:07;;;;;;;;;8.50;8.50;;;;;22.67;36.36;99857.38;6304723;22;46200;-77
2024/03/08 15:39:33;;;;;;;;;10.00;7.00;;;;;22.59;35.95;99843.31;6304994;22;45310;-77
2024/03/08 15:42:00;;;;;;;;;9.25;7.50;;;;;22.67;36.29;99841.47;6304564;22;45317;-77
2024/03/08 15:44:27;;;;;;;;;10.00;9.75;;;;;22.66;36.37;99840.69;6304512;22;45386;-78
2024/03/08 15:46:52;;;;;;;;;12.75;9.50;;;;;22.66;36.15;99829.25;6304164;22;47127;-78
2024/03/08 15:49:18;;;;;;;;;6.50;6.50;;;;;22.65;36.42;99825.78;6304648;22;45316;-78
2024/03/08 15:51:46;;;;;;;;;6.67;5.33;;;;;22.65;36.05;99820.47;6304434;22;45361;-77
2024/03/08 15:54:11;;;;;;;;;10.67;8.00;;;;;22.62;36.13;99818.25;6304850;22;45248;-77
2024/03/08 15:56:36;;;;;;;;;9.00;8.00;;;;;22.61;36.62;99816.63;6304182;22;45187;-76
2024/03/08 15:59:06;;;;;;;;;9.67;9.00;;;;;22.64;36.11;99821.50;6304184;22;45249;-77
2024/03/08 16:01:32;;;;;;;;;11.00;8.00;;;;;22.62;35.82;99815.59;6304456;22;45238;-77
2024/03/08 16:03:58;;;;;;;;;10.25;8.00;;;;;22.62;36.33;99792.53;6304660;22;45234;-77
2024/03/08 16:06:24;;;;;;;;;12.25;9.25;;;;;22.60;35.84;99804.38;6303763;22;46880;-78
2024/03/08 16:08:50;;;;;;;;;6.00;6.00;;;;;22.61;36.52;99796.22;6304368;22;45331;-77
2024/03/08 16:11:17;;;;;;;;;9.00;9.00;;;;;22.60;35.94;99794.59;6303790;22;45229;-77
2024/03/08 16:13:44;;;;;;;;;7.25;6.25;;;;;22.53;36.29;99767.31;6304317;22;45429;-78
2024/03/08 16:16:09;;;;;;;;;9.50;9.50;;;;;22.44;36.23;99742.03;6303835;22;46746;-78
2024/03/08 16:18:34;;;;;;;;;10.25;7.25;;;;;22.60;36.10;99784.00;6304652;22;45374;-77
2024/03/08 16:21:02;;;;;;;;;6.67;6.67;;;;;22.62;36.46;99767.88;6304748;22;45261;-77
2024/03/08 16:23:28;;;;;;;;;8.00;7.00;;;;;22.59;36.65;99763.78;6304661;22;45319;-77
2024/03/08 16:25:54;;;;;;;;;9.00;7.67;;;;;22.60;36.45;99765.44;6302099;22;47978;-77
2024/03/08 16:28:25;;;;;;;;;7.75;6.75;;;;;22.46;36.40;99750.59;6304170;22;45367;-76
2024/03/08 16:30:54;;;;;;;;;9.25;9.25;;;;;22.53;36.43;99754.06;6304585;22;45247;-77
2024/03/08 16:33:20;;;;;;;;;7.00;7.00;;;;;22.53;36.47;99751.41;6304593;22;45224;-77
2024/03/08 16:35:46;;;;;;;;;8.33;7.00;;;;;22.58;36.18;99769.31;6304359;22;46138;-77
2024/03/08 16:38:16;;;;;;;;;11.00;8.00;;;;;22.56;36.71;99772.16;6304101;22;45229;-76
2024/03/08 16:40:48;;;;;;;;;7.00;7.00;;;;;22.56;36.19;99768.72;6303848;22;45312;-77
2024/03/08 16:43:16;;;;;;;;;5.67;5.00;;;;;22.58;36.57;99769.31;6304168;22;45604;-77
2024/03/08 16:45:42;;;;;;;;;6.50;6.50;;;;;22.55;36.52;99764.44;6303995;22;46835;-77
2024/03/08 16:48:08;;;;;;;;;7.33;7.00;;;;;22.58;36.68;99775.44;6304118;22;45319;-77
2024/03/08 16:50:34;;;;;;;;;8.00;8.00;;;;;22.56;36.60;99769.50;6304842;22;45273;-76
2024/03/08 16:53:06;;;;;;;;;9.00;9.00;;;;;22.57;36.66;99778.28;6304524;22;45403;-76
2024/03/08 16:55:33;;;;;;;;;7.00;7.00;;;;;22.50;36.80;99775.66;6303729;22;46176;-77
2024/03/08 16:57:59;;;;;;;;;10.67;6.67;;;;;22.56;36.79;99771.38;6304038;22;45581;-77
2024/03/08 17:00:27;;;;;;;;;6.00;6.00;;;;;22.56;36.20;99784.63;6304520;22;45282;-77
2024/03/08 17:02:59;;;;;;;;;8.00;7.33;;;;;22.56;36.71;99761.56;6304459;22;45201;-76
2024/03/08 17:05:29;;;;;;;;;7.50;7.50;;;;;22.55;36.71;99767.91;6303851;22;47054;-77
2024/03/08 17:07:57;;;;;;;;;6.67;5.67;;;;;22.54;36.69;99762.78;6304249;22;45335;-77
2024/03/08 17:10:30;;;;;;;;;9.33;7.67;;;;;22.53;36.27;99764.66;6303667;22;45347;-77
2024/03/08 17:13:00;;;;;;;;;10.33;8.00;;;;;22.51;36.90;99764.84;6304863;22;45137;-77
2024/03/08 17:15:28;;;;;;;;;7.00;7.00;;;;;22.51;36.71;99761.38;6303581;22;46513;-77
2024/03/08 17:17:58;;;;;;;;;6.25;6.25;;;;;22.44;36.45;99752.66;6304414;22;45238;-77
2024/03/08 17:20:25;;;;;;;;;8.33;6.67;;;;;22.49;36.88;99753.66;6304269;22;45244;-78
2024/03/08 17:22:55;;;;;;;;;7.75;6.75;;;;;22.49;36.89;99755.47;6303453;22;45409;-77
2024/03/08 17:25:22;;;;;;;;;6.33;5.33;;;;;22.48;36.54;99754.66;6303386;22;46917;-77
2024/03/08 17:27:53;;;;;;;;;12.50;8.00;;;;;22.38;36.71;99763.06;6303770;22;45314;-76
2024/03/08 17:30:22;;;;;;;;;7.00;6.00;;;;;22.33;36.56;99746.97;6304349;22;45212;-77
2024/03/08 17:32:54;;;;;;;;;7.75;7.00;;;;;22.47;36.63;99768.13;6303906;22;45283;-76
2024/03/08 17:35:24;;;;;;;;;7.67;5.00;;;;;22.38;36.60;99749.81;6303685;22;47195;-77
2024/03/08 17:37:51;;;;;;;;;9.00;7.00;;;;;22.37;36.30;99740.25;6303657;22;45307;-76
2024/03/08 17:40:21;;;;;;;;;8.25;6.25;;;;;22.46;36.40;99766.50;6304504;22;45508;-77
2024/03/08 17:43:00;;;;;;;;;8.00;6.00;;;;;22.45;36.46;99749.81;6303814;22;45356;-76
2024/03/08 17:45:27;;;;;;;;;5.00;5.00;;;;;22.44;36.83;99758.75;6303448;22;46152;-78
2024/03/08 17:47:54;;;;;;;;;8.75;6.75;;;;;22.44;36.78;99753.47;6304045;22;45327;-78
2024/03/08 17:50:20;;;;;;;;;6.00;5.67;;;;;22.34;36.60;99729.25;6304371;22;45271;-77
2024/03/08 17:52:48;;;;;;;;;6.00;6.00;;;;;22.42;36.53;99744.91;6303668;22;45273;-77
2024/03/08 17:55:15;;;;;;;;;7.00;5.67;;;;;22.35;36.45;99720.28;6303311;22;47049;-77
2024/03/08 17:57:44;;;;;;;;;6.00;6.00;;;;;22.40;36.77;99737.16;6303687;22;45459;-77
2024/03/08 18:00:17;;;;;;;;;5.00;3.67;;;;;22.39;36.18;99735.53;6303755;22;45205;-76
2024/03/08 18:02:49;;;;;;;;;5.67;5.67;;;;;22.40;36.33;99734.50;6303603;22;45477;-77
2024/03/08 18:05:15;;;;;;;;;8.00;7.50;;;;;22.35;36.90;99734.31;6303441;22;46101;-78
2024/03/08 18:07:41;;;;;;;;;6.50;6.00;;;;;22.42;36.47;99733.50;6303188;22;45220;-79
2024/03/08 18:10:09;;;;;;;;;7.67;7.67;;;;;22.42;36.89;99736.16;6304344;22;45194;-77
2024/03/08 18:12:35;;;;;;;;;7.00;7.00;;;;;22.39;36.36;99735.53;6303886;22;45545;-78
2024/03/08 18:15:00;;;;;;;;;6.00;6.00;;;;;22.39;36.29;99732.91;6303709;22;46049;-78
2024/03/08 18:17:27;;;;;;;;;6.00;6.00;;;;;22.37;36.57;99736.78;6303806;22;45277;-77
2024/03/08 18:19:53;;;;;;;;;6.25;5.25;;;;;22.39;36.72;99738.19;6304201;22;45312;-77
2024/03/08 18:22:18;;;;;;;;;9.00;7.00;;;;;22.38;36.86;99733.91;6303053;22;45397;-78
2024/03/08 18:24:46;;;;;;;;;7.25;6.25;;;;;22.38;36.85;99720.66;6303744;22;46170;-78
2024/03/08 18:27:11;;;;;;;;;7.33;7.33;;;;;22.38;36.74;99723.31;6303247;22;45307;-77
2024/03/08 18:29:36;;;;;;;;;7.00;7.00;;;;;22.31;36.32;99703.16;6304157;22;45695;-78
2024/03/08 18:32:02;;;;;;;;;10.50;5.75;;;;;22.36;36.35;99704.16;6303756;22;45384;-77
2024/03/08 18:34:27;;;;;;;;;6.67;5.67;;;;;22.36;36.46;99704.16;6304458;22;45277;-77